sensor_id;sensor_type;location;lat;lon;timestamp;temperature;humidity
39033;DHT22;24794;51.982;5.878;2022-12-24T00:00:29;10.50;99.90
39033;DHT22;24794;51.982;5.878;2022-12-24T00:01:30;10.50;99.90
39033;DHT22;24794;51.982;5.878;2022-12-24T00:02:30;10.50;99.90
39033;DHT22;24794;51.982;5.878;2022-12-24T00:03:31;10.50;99.90
39033;DHT22;24794;51.982;5.878;2022-12-24T00:04:32;10.50;99.90
39033;DHT22;24794;51.982;5.878;2022-12-24T00:05:33;10.50;99.90
39033;DHT22;24794;51.982;5.878;2022-12-24T00:06:34;10.50;99.90
39033;DHT22;24794;51.982;5.878;2022-12-24T00:07:35;10.50;99.90
39033;DHT22;24794;51.982;5.878;2022-12-24T00:08:35;10.50;99.90
39033;DHT22;24794;51.982;5.878;2022-12-24T00:09:36;10.50;99.90
39033;DHT22;24794;51.982;5.878;2022-12-24T00:10:36;10.50;99.90
39033;DHT22;24794;51.982;5.878;2022-12-24T00:11:37;10.50;99.90
39033;DHT22;24794;51.982;5.878;2022-12-24T00:12:38;10.50;99.90
39033;DHT22;24794;51.982;5.878;2022-12-24T00:13:38;10.50;99.90
39033;DHT22;24794;51.982;5.878;2022-12-24T00:14:39;10.40;99.90
39033;DHT22;24794;51.982;5.878;2022-12-24T00:15:39;10.40;99.90
39033;DHT22;24794;51.982;5.878;2022-12-24T00:16:40;10.40;99.90
39033;DHT22;24794;51.982;5.878;2022-12-24T00:17:41;10.50;99.90
39033;DHT22;24794;51.982;5.878;2022-12-24T00:18:41;10.40;99.90
39033;DHT22;24794;51.982;5.878;2022-12-24T00:19:42;10.50;99.90
39033;DHT22;24794;51.982;5.878;2022-12-24T00:20:49;10.40;99.90
39033;DHT22;24794;51.982;5.878;2022-12-24T00:21:49;10.40;99.90
39033;DHT22;24794;51.982;5.878;2022-12-24T00:22:50;10.50;99.90
39033;DHT22;24794;51.982;5.878;2022-12-24T00:23:50;10.50;99.90
39033;DHT22;24794;51.982;5.878;2022-12-24T00:24:51;10.40;99.90
39033;DHT22;24794;51.982;5.878;2022-12-24T00:25:52;10.40;99.90
39033;DHT22;24794;51.982;5.878;2022-12-24T00:26:52;10.40;99.90
39033;DHT22;24794;51.982;5.878;2022-12-24T00:27:53;10.40;99.90
39033;DHT22;24794;51.982;5.878;2022-12-24T00:28:53;10.50;99.90
39033;DHT22;24794;51.982;5.878;2022-12-24T00:29:54;10.50;99.90
39033;DHT22;24794;51.982;5.878;2022-12-24T00:30:54;10.50;99.90
39033;DHT22;24794;51.982;5.878;2022-12-24T00:31:55;10.40;99.90
39033;DHT22;24794;51.982;5.878;2022-12-24T00:32:56;10.40;99.90
39033;DHT22;24794;51.982;5.878;2022-12-24T00:33:56;10.50;99.90
39033;DHT22;24794;51.982;5.878;2022-12-24T00:34:57;10.40;99.90
39033;DHT22;24794;51.982;5.878;2022-12-24T00:35:57;10.40;99.90
39033;DHT22;24794;51.982;5.878;2022-12-24T00:36:58;10.40;99.90
39033;DHT22;24794;51.982;5.878;2022-12-24T00:37:58;10.40;99.90
39033;DHT22;24794;51.982;5.878;2022-12-24T00:38:59;10.40;99.90
39033;DHT22;24794;51.982;5.878;2022-12-24T00:40:00;10.40;99.90
39033;DHT22;24794;51.982;5.878;2022-12-24T00:41:02;10.40;99.90
39033;DHT22;24794;51.982;5.878;2022-12-24T00:42:03;10.40;99.90
39033;DHT22;24794;51.982;5.878;2022-12-24T00:43:04;10.40;99.90
39033;DHT22;24794;51.982;5.878;2022-12-24T00:44:06;10.40;99.90
39033;DHT22;24794;51.982;5.878;2022-12-24T00:45:10;10.40;99.90
39033;DHT22;24794;51.982;5.878;2022-12-24T00:46:11;10.40;99.90
39033;DHT22;24794;51.982;5.878;2022-12-24T00:47:11;10.40;99.90
39033;DHT22;24794;51.982;5.878;2022-12-24T00:48:13;10.40;99.90
39033;DHT22;24794;51.982;5.878;2022-12-24T00:49:14;10.40;99.90
39033;DHT22;24794;51.982;5.878;2022-12-24T00:50:15;10.40;99.90
39033;DHT22;24794;51.982;5.878;2022-12-24T00:51:16;10.40;99.90
39033;DHT22;24794;51.982;5.878;2022-12-24T00:52:16;10.40;99.90
39033;DHT22;24794;51.982;5.878;2022-12-24T00:53:17;10.40;99.90
39033;DHT22;24794;51.982;5.878;2022-12-24T00:54:18;10.40;99.90
39033;DHT22;24794;51.982;5.878;2022-12-24T00:55:18;10.40;99.90
39033;DHT22;24794;51.982;5.878;2022-12-24T00:56:20;10.40;99.90
39033;DHT22;24794;51.982;5.878;2022-12-24T00:57:21;10.40;99.90
39033;DHT22;24794;51.982;5.878;2022-12-24T00:58:21;10.40;99.90
39033;DHT22;24794;51.982;5.878;2022-12-24T00:59:22;10.40;99.90
39033;DHT22;24794;51.982;5.878;2022-12-24T01:00:23;10.40;99.90
39033;DHT22;24794;51.982;5.878;2022-12-24T01:01:23;10.40;99.90
39033;DHT22;24794;51.982;5.878;2022-12-24T01:02:24;10.40;99.90
39033;DHT22;24794;51.982;5.878;2022-12-24T01:03:25;10.40;99.90
39033;DHT22;24794;51.982;5.878;2022-12-24T01:04:35;10.40;99.90
39033;DHT22;24794;51.982;5.878;2022-12-24T01:05:54;10.40;99.90
39033;DHT22;24794;51.982;5.878;2022-12-24T01:06:55;10.40;99.90
39033;DHT22;24794;51.982;5.878;2022-12-24T01:07:55;10.40;99.90
39033;DHT22;24794;51.982;5.878;2022-12-24T01:08:56;10.40;99.90
39033;DHT22;24794;51.982;5.878;2022-12-24T01:09:56;10.40;99.90
39033;DHT22;24794;51.982;5.878;2022-12-24T01:10:57;10.40;99.90
39033;DHT22;24794;51.982;5.878;2022-12-24T01:11:58;10.30;99.90
39033;DHT22;24794;51.982;5.878;2022-12-24T01:13:01;10.40;99.90
39033;DHT22;24794;51.982;5.878;2022-12-24T01:14:02;10.40;99.90
39033;DHT22;24794;51.982;5.878;2022-12-24T01:15:04;10.40;99.90
39033;DHT22;24794;51.982;5.878;2022-12-24T01:16:19;10.30;99.90
39033;DHT22;24794;51.982;5.878;2022-12-24T01:17:19;10.30;99.90
39033;DHT22;24794;51.982;5.878;2022-12-24T01:18:20;10.30;99.90
39033;DHT22;24794;51.982;5.878;2022-12-24T01:19:21;10.30;99.90
39033;DHT22;24794;51.982;5.878;2022-12-24T01:20:21;10.30;99.90
39033;DHT22;24794;51.982;5.878;2022-12-24T01:21:22;10.30;99.90
39033;DHT22;24794;51.982;5.878;2022-12-24T01:22:22;10.30;99.90
39033;DHT22;24794;51.982;5.878;2022-12-24T01:23:23;10.40;99.90
39033;DHT22;24794;51.982;5.878;2022-12-24T01:24:24;10.30;99.90
39033;DHT22;24794;51.982;5.878;2022-12-24T01:25:24;10.40;99.90
39033;DHT22;24794;51.982;5.878;2022-12-24T01:26:25;10.40;99.90
39033;DHT22;24794;51.982;5.878;2022-12-24T01:27:26;10.40;99.90
39033;DHT22;24794;51.982;5.878;2022-12-24T01:28:26;10.30;99.90
39033;DHT22;24794;51.982;5.878;2022-12-24T01:29:27;10.30;99.90
39033;DHT22;24794;51.982;5.878;2022-12-24T01:30:28;10.30;99.90
39033;DHT22;24794;51.982;5.878;2022-12-24T01:31:28;10.30;99.90
39033;DHT22;24794;51.982;5.878;2022-12-24T01:32:29;10.30;99.90
39033;DHT22;24794;51.982;5.878;2022-12-24T01:33:29;10.30;99.90
39033;DHT22;24794;51.982;5.878;2022-12-24T01:34:30;10.30;99.90
39033;DHT22;24794;51.982;5.878;2022-12-24T01:35:31;10.30;99.90
39033;DHT22;24794;51.982;5.878;2022-12-24T01:36:31;10.30;99.90
39033;DHT22;24794;51.982;5.878;2022-12-24T01:37:32;10.30;99.90
39033;DHT22;24794;51.982;5.878;2022-12-24T01:38:33;10.30;99.90
39033;DHT22;24794;51.982;5.878;2022-12-24T01:39:33;10.30;99.90
39033;DHT22;24794;51.982;5.878;2022-12-24T01:40:34;10.30;99.90
39033;DHT22;24794;51.982;5.878;2022-12-24T01:42:20;10.30;99.90
39033;DHT22;24794;51.982;5.878;2022-12-24T01:43:40;10.30;99.90
39033;DHT22;24794;51.982;5.878;2022-12-24T01:44:42;10.30;99.90
39033;DHT22;24794;51.982;5.878;2022-12-24T01:46:50;10.30;99.90
39033;DHT22;24794;51.982;5.878;2022-12-24T01:47:51;10.20;99.90
39033;DHT22;24794;51.982;5.878;2022-12-24T01:49:00;10.20;99.90
39033;DHT22;24794;51.982;5.878;2022-12-24T01:50:12;10.20;99.90
39033;DHT22;24794;51.982;5.878;2022-12-24T01:52:34;10.20;99.90
39033;DHT22;24794;51.982;5.878;2022-12-24T01:53:36;10.20;99.90
39033;DHT22;24794;51.982;5.878;2022-12-24T01:54:43;10.20;99.90
39033;DHT22;24794;51.982;5.878;2022-12-24T01:55:46;10.20;99.90
39033;DHT22;24794;51.982;5.878;2022-12-24T01:56:57;10.20;99.90
39033;DHT22;24794;51.982;5.878;2022-12-24T01:57:59;10.20;99.90
39033;DHT22;24794;51.982;5.878;2022-12-24T01:59:04;10.20;99.90
39033;DHT22;24794;51.982;5.878;2022-12-24T02:00:11;10.20;99.90
39033;DHT22;24794;51.982;5.878;2022-12-24T02:01:12;10.20;99.90
39033;DHT22;24794;51.982;5.878;2022-12-24T02:02:13;10.20;99.90
39033;DHT22;24794;51.982;5.878;2022-12-24T02:03:13;10.20;99.90
39033;DHT22;24794;51.982;5.878;2022-12-24T02:04:35;10.10;99.90
39033;DHT22;24794;51.982;5.878;2022-12-24T02:05:48;10.10;99.90
39033;DHT22;24794;51.982;5.878;2022-12-24T02:06:49;10.10;99.90
39033;DHT22;24794;51.982;5.878;2022-12-24T02:07:50;10.10;99.90
39033;DHT22;24794;51.982;5.878;2022-12-24T02:08:51;10.10;99.90
39033;DHT22;24794;51.982;5.878;2022-12-24T02:09:57;10.10;99.90
39033;DHT22;24794;51.982;5.878;2022-12-24T02:10:58;10.10;99.90
39033;DHT22;24794;51.982;5.878;2022-12-24T02:11:59;10.00;99.90
39033;DHT22;24794;51.982;5.878;2022-12-24T02:13:00;10.00;99.90
39033;DHT22;24794;51.982;5.878;2022-12-24T02:14:02;10.00;99.90
39033;DHT22;24794;51.982;5.878;2022-12-24T02:15:04;10.00;99.90
39033;DHT22;24794;51.982;5.878;2022-12-24T02:18:13;9.90;99.90
39033;DHT22;24794;51.982;5.878;2022-12-24T02:29:48;9.80;99.90
39033;DHT22;24794;51.982;5.878;2022-12-24T02:31:00;9.80;99.90
39033;DHT22;24794;51.982;5.878;2022-12-24T02:32:05;9.80;99.90
39033;DHT22;24794;51.982;5.878;2022-12-24T02:33:25;9.70;99.90
39033;DHT22;24794;51.982;5.878;2022-12-24T02:34:33;9.70;99.90
39033;DHT22;24794;51.982;5.878;2022-12-24T02:35:48;9.70;99.90
39033;DHT22;24794;51.982;5.878;2022-12-24T02:37:04;9.70;99.90
39033;DHT22;24794;51.982;5.878;2022-12-24T02:38:26;9.70;99.90
39033;DHT22;24794;51.982;5.878;2022-12-24T02:39:58;9.70;99.90
39033;DHT22;24794;51.982;5.878;2022-12-24T02:41:30;9.60;99.90
39033;DHT22;24794;51.982;5.878;2022-12-24T02:43:02;9.60;99.90
39033;DHT22;24794;51.982;5.878;2022-12-24T02:44:04;9.60;99.90
39033;DHT22;24794;51.982;5.878;2022-12-24T02:45:11;9.60;99.90
39033;DHT22;24794;51.982;5.878;2022-12-24T02:46:16;9.60;99.90
39033;DHT22;24794;51.982;5.878;2022-12-24T02:47:19;9.60;99.90
39033;DHT22;24794;51.982;5.878;2022-12-24T02:48:21;9.60;99.90
39033;DHT22;24794;51.982;5.878;2022-12-24T02:49:22;9.50;99.90
39033;DHT22;24794;51.982;5.878;2022-12-24T02:50:23;9.50;99.90
39033;DHT22;24794;51.982;5.878;2022-12-24T02:51:24;9.50;99.90
39033;DHT22;24794;51.982;5.878;2022-12-24T02:52:37;9.50;99.90
39033;DHT22;24794;51.982;5.878;2022-12-24T02:53:38;9.50;99.90
39033;DHT22;24794;51.982;5.878;2022-12-24T02:54:44;9.50;99.90
39033;DHT22;24794;51.982;5.878;2022-12-24T02:55:53;9.50;99.90
39033;DHT22;24794;51.982;5.878;2022-12-24T03:00:05;9.50;99.90
39033;DHT22;24794;51.982;5.878;2022-12-24T03:05:06;9.50;99.90
39033;DHT22;24794;51.982;5.878;2022-12-24T03:05:50;9.40;99.90
39033;DHT22;24794;51.982;5.878;2022-12-24T03:06:56;9.40;99.90
39033;DHT22;24794;51.982;5.878;2022-12-24T03:09:17;9.40;99.90
39033;DHT22;24794;51.982;5.878;2022-12-24T03:10:30;9.40;99.90
39033;DHT22;24794;51.982;5.878;2022-12-24T03:11:35;9.40;99.90
39033;DHT22;24794;51.982;5.878;2022-12-24T03:12:44;9.40;99.90
39033;DHT22;24794;51.982;5.878;2022-12-24T03:13:46;9.40;99.90
39033;DHT22;24794;51.982;5.878;2022-12-24T03:14:48;9.40;99.90
39033;DHT22;24794;51.982;5.878;2022-12-24T03:15:51;9.40;99.90
39033;DHT22;24794;51.982;5.878;2022-12-24T03:16:51;9.40;99.90
39033;DHT22;24794;51.982;5.878;2022-12-24T03:17:56;9.40;99.90
39033;DHT22;24794;51.982;5.878;2022-12-24T03:18:58;9.40;99.90
39033;DHT22;24794;51.982;5.878;2022-12-24T03:19:59;9.40;99.90
39033;DHT22;24794;51.982;5.878;2022-12-24T03:21:05;9.40;99.90
39033;DHT22;24794;51.982;5.878;2022-12-24T03:22:08;9.40;99.90
39033;DHT22;24794;51.982;5.878;2022-12-24T03:23:10;9.40;99.90
39033;DHT22;24794;51.982;5.878;2022-12-24T03:24:11;9.40;99.90
39033;DHT22;24794;51.982;5.878;2022-12-24T03:25:11;9.40;99.90
39033;DHT22;24794;51.982;5.878;2022-12-24T03:26:13;9.40;99.90
39033;DHT22;24794;51.982;5.878;2022-12-24T03:27:15;9.40;99.90
39033;DHT22;24794;51.982;5.878;2022-12-24T03:28:17;9.40;99.90
39033;DHT22;24794;51.982;5.878;2022-12-24T03:29:19;9.40;99.90
39033;DHT22;24794;51.982;5.878;2022-12-24T03:30:20;9.40;99.90
39033;DHT22;24794;51.982;5.878;2022-12-24T03:31:20;9.40;99.90
39033;DHT22;24794;51.982;5.878;2022-12-24T03:32:28;9.40;99.90
39033;DHT22;24794;51.982;5.878;2022-12-24T03:33:29;9.40;99.90
39033;DHT22;24794;51.982;5.878;2022-12-24T03:34:29;9.40;99.90
39033;DHT22;24794;51.982;5.878;2022-12-24T03:35:30;9.40;99.90
39033;DHT22;24794;51.982;5.878;2022-12-24T03:36:31;9.40;99.90
39033;DHT22;24794;51.982;5.878;2022-12-24T03:37:31;9.40;99.90
39033;DHT22;24794;51.982;5.878;2022-12-24T03:38:32;9.40;99.90
39033;DHT22;24794;51.982;5.878;2022-12-24T03:39:33;9.40;99.90
39033;DHT22;24794;51.982;5.878;2022-12-24T03:40:33;9.40;99.90
39033;DHT22;24794;51.982;5.878;2022-12-24T03:41:35;9.40;99.90
39033;DHT22;24794;51.982;5.878;2022-12-24T03:42:35;9.40;99.90
39033;DHT22;24794;51.982;5.878;2022-12-24T03:43:36;9.40;99.90
39033;DHT22;24794;51.982;5.878;2022-12-24T03:44:37;9.40;99.90
39033;DHT22;24794;51.982;5.878;2022-12-24T03:45:37;9.40;99.90
39033;DHT22;24794;51.982;5.878;2022-12-24T03:46:38;9.40;99.90
39033;DHT22;24794;51.982;5.878;2022-12-24T03:47:39;9.40;99.90
39033;DHT22;24794;51.982;5.878;2022-12-24T03:48:39;9.40;99.90
39033;DHT22;24794;51.982;5.878;2022-12-24T03:49:40;9.50;99.90
39033;DHT22;24794;51.982;5.878;2022-12-24T03:50:40;9.50;99.90
39033;DHT22;24794;51.982;5.878;2022-12-24T03:51:41;9.40;99.90
39033;DHT22;24794;51.982;5.878;2022-12-24T03:52:41;9.40;99.90
39033;DHT22;24794;51.982;5.878;2022-12-24T03:53:42;9.50;99.90
39033;DHT22;24794;51.982;5.878;2022-12-24T03:54:43;9.50;99.90
39033;DHT22;24794;51.982;5.878;2022-12-24T03:55:43;9.50;99.90
39033;DHT22;24794;51.982;5.878;2022-12-24T03:56:44;9.50;99.90
39033;DHT22;24794;51.982;5.878;2022-12-24T03:57:44;9.50;99.90
39033;DHT22;24794;51.982;5.878;2022-12-24T03:58:45;9.60;99.90
39033;DHT22;24794;51.982;5.878;2022-12-24T03:59:46;9.50;99.90
39033;DHT22;24794;51.982;5.878;2022-12-24T04:00:46;9.60;99.90
39033;DHT22;24794;51.982;5.878;2022-12-24T04:01:47;9.60;99.90
39033;DHT22;24794;51.982;5.878;2022-12-24T04:02:47;9.60;99.90
39033;DHT22;24794;51.982;5.878;2022-12-24T04:03:48;9.60;99.90
39033;DHT22;24794;51.982;5.878;2022-12-24T04:04:49;9.60;99.90
39033;DHT22;24794;51.982;5.878;2022-12-24T04:06:00;9.60;99.90
39033;DHT22;24794;51.982;5.878;2022-12-24T04:07:01;9.60;99.90
39033;DHT22;24794;51.982;5.878;2022-12-24T04:08:01;9.70;99.90
39033;DHT22;24794;51.982;5.878;2022-12-24T04:09:02;9.70;99.90
39033;DHT22;24794;51.982;5.878;2022-12-24T04:10:04;9.70;99.90
39033;DHT22;24794;51.982;5.878;2022-12-24T04:11:07;9.70;99.90
39033;DHT22;24794;51.982;5.878;2022-12-24T04:12:08;9.70;99.90
39033;DHT22;24794;51.982;5.878;2022-12-24T04:13:08;9.70;99.90
39033;DHT22;24794;51.982;5.878;2022-12-24T04:14:09;9.70;99.90
39033;DHT22;24794;51.982;5.878;2022-12-24T04:15:10;9.70;99.90
39033;DHT22;24794;51.982;5.878;2022-12-24T04:16:15;9.70;99.90
39033;DHT22;24794;51.982;5.878;2022-12-24T04:17:16;9.80;99.90
39033;DHT22;24794;51.982;5.878;2022-12-24T04:18:16;9.80;99.90
39033;DHT22;24794;51.982;5.878;2022-12-24T04:19:17;9.80;99.90
39033;DHT22;24794;51.982;5.878;2022-12-24T04:20:17;9.80;99.90
39033;DHT22;24794;51.982;5.878;2022-12-24T04:21:18;9.80;99.90
39033;DHT22;24794;51.982;5.878;2022-12-24T04:22:19;9.80;99.90
39033;DHT22;24794;51.982;5.878;2022-12-24T04:23:19;9.80;99.90
39033;DHT22;24794;51.982;5.878;2022-12-24T04:24:20;9.80;99.90
39033;DHT22;24794;51.982;5.878;2022-12-24T04:25:21;9.80;99.90
39033;DHT22;24794;51.982;5.878;2022-12-24T04:26:21;9.80;99.90
39033;DHT22;24794;51.982;5.878;2022-12-24T04:27:22;9.90;99.90
39033;DHT22;24794;51.982;5.878;2022-12-24T04:28:22;9.90;99.90
39033;DHT22;24794;51.982;5.878;2022-12-24T04:29:23;9.90;99.90
39033;DHT22;24794;51.982;5.878;2022-12-24T04:30:23;9.90;99.90
39033;DHT22;24794;51.982;5.878;2022-12-24T04:31:24;9.90;99.90
39033;DHT22;24794;51.982;5.878;2022-12-24T04:32:25;9.90;99.90
39033;DHT22;24794;51.982;5.878;2022-12-24T04:33:26;9.90;99.90
39033;DHT22;24794;51.982;5.878;2022-12-24T04:34:27;10.00;99.90
39033;DHT22;24794;51.982;5.878;2022-12-24T04:35:27;10.00;99.90
39033;DHT22;24794;51.982;5.878;2022-12-24T04:36:29;10.00;99.90
39033;DHT22;24794;51.982;5.878;2022-12-24T04:37:29;10.00;99.90
39033;DHT22;24794;51.982;5.878;2022-12-24T04:38:30;10.00;99.90
39033;DHT22;24794;51.982;5.878;2022-12-24T04:39:31;10.00;99.90
39033;DHT22;24794;51.982;5.878;2022-12-24T04:40:32;10.00;99.90
39033;DHT22;24794;51.982;5.878;2022-12-24T04:41:32;10.10;99.90
39033;DHT22;24794;51.982;5.878;2022-12-24T04:42:33;10.10;99.90
39033;DHT22;24794;51.982;5.878;2022-12-24T04:43:34;10.10;99.90
39033;DHT22;24794;51.982;5.878;2022-12-24T04:44:34;10.10;99.90
39033;DHT22;24794;51.982;5.878;2022-12-24T04:45:35;10.10;99.90
39033;DHT22;24794;51.982;5.878;2022-12-24T04:46:35;10.10;99.90
39033;DHT22;24794;51.982;5.878;2022-12-24T04:47:36;10.20;99.90
39033;DHT22;24794;51.982;5.878;2022-12-24T04:48:37;10.20;99.90
39033;DHT22;24794;51.982;5.878;2022-12-24T04:49:37;10.20;99.90
39033;DHT22;24794;51.982;5.878;2022-12-24T04:50:38;10.20;99.90
39033;DHT22;24794;51.982;5.878;2022-12-24T04:51:39;10.20;99.90
39033;DHT22;24794;51.982;5.878;2022-12-24T04:52:39;10.20;99.90
39033;DHT22;24794;51.982;5.878;2022-12-24T04:53:41;10.20;99.90
39033;DHT22;24794;51.982;5.878;2022-12-24T04:54:42;10.20;99.90
39033;DHT22;24794;51.982;5.878;2022-12-24T04:55:46;10.30;99.90
39033;DHT22;24794;51.982;5.878;2022-12-24T04:56:46;10.30;99.90
39033;DHT22;24794;51.982;5.878;2022-12-24T04:57:47;10.30;99.90
39033;DHT22;24794;51.982;5.878;2022-12-24T04:58:48;10.30;99.90
39033;DHT22;24794;51.982;5.878;2022-12-24T04:59:49;10.30;99.90
39033;DHT22;24794;51.982;5.878;2022-12-24T05:00:49;10.30;99.90
39033;DHT22;24794;51.982;5.878;2022-12-24T05:01:50;10.30;99.90
39033;DHT22;24794;51.982;5.878;2022-12-24T05:02:50;10.30;99.90
39033;DHT22;24794;51.982;5.878;2022-12-24T05:03:52;10.30;99.90
39033;DHT22;24794;51.982;5.878;2022-12-24T05:04:53;10.30;99.90
39033;DHT22;24794;51.982;5.878;2022-12-24T05:06:00;10.30;99.90
39033;DHT22;24794;51.982;5.878;2022-12-24T05:07:01;10.30;99.90
39033;DHT22;24794;51.982;5.878;2022-12-24T05:08:01;10.30;99.90
39033;DHT22;24794;51.982;5.878;2022-12-24T05:09:02;10.30;99.90
39033;DHT22;24794;51.982;5.878;2022-12-24T05:10:03;10.30;99.90
39033;DHT22;24794;51.982;5.878;2022-12-24T05:11:05;10.30;99.90
39033;DHT22;24794;51.982;5.878;2022-12-24T05:12:06;10.40;99.90
39033;DHT22;24794;51.982;5.878;2022-12-24T05:13:07;10.40;99.90
39033;DHT22;24794;51.982;5.878;2022-12-24T05:14:07;10.40;99.90
39033;DHT22;24794;51.982;5.878;2022-12-24T05:15:08;10.40;99.90
39033;DHT22;24794;51.982;5.878;2022-12-24T05:16:09;10.40;99.90
39033;DHT22;24794;51.982;5.878;2022-12-24T05:17:10;10.40;99.90
39033;DHT22;24794;51.982;5.878;2022-12-24T05:18:11;10.40;99.90
39033;DHT22;24794;51.982;5.878;2022-12-24T05:19:12;10.40;99.90
39033;DHT22;24794;51.982;5.878;2022-12-24T05:20:13;10.40;99.90
39033;DHT22;24794;51.982;5.878;2022-12-24T05:21:16;10.40;99.90
39033;DHT22;24794;51.982;5.878;2022-12-24T05:22:17;10.40;99.90
39033;DHT22;24794;51.982;5.878;2022-12-24T05:23:36;10.40;99.90
39033;DHT22;24794;51.982;5.878;2022-12-24T05:24:55;10.40;99.90
39033;DHT22;24794;51.982;5.878;2022-12-24T05:27:22;10.40;99.90
39033;DHT22;24794;51.982;5.878;2022-12-24T05:28:23;10.50;99.90
39033;DHT22;24794;51.982;5.878;2022-12-24T05:29:24;10.40;99.90
39033;DHT22;24794;51.982;5.878;2022-12-24T05:30:25;10.50;99.90
39033;DHT22;24794;51.982;5.878;2022-12-24T05:31:28;10.40;99.90
39033;DHT22;24794;51.982;5.878;2022-12-24T05:32:29;10.40;99.90
39033;DHT22;24794;51.982;5.878;2022-12-24T05:33:29;10.50;99.90
39033;DHT22;24794;51.982;5.878;2022-12-24T05:34:30;10.40;99.90
39033;DHT22;24794;51.982;5.878;2022-12-24T05:35:30;10.50;99.90
39033;DHT22;24794;51.982;5.878;2022-12-24T05:36:31;10.40;99.90
39033;DHT22;24794;51.982;5.878;2022-12-24T05:37:32;10.50;99.90
39033;DHT22;24794;51.982;5.878;2022-12-24T05:38:32;10.40;99.90
39033;DHT22;24794;51.982;5.878;2022-12-24T05:39:33;10.40;99.90
39033;DHT22;24794;51.982;5.878;2022-12-24T05:40:34;10.40;99.90
39033;DHT22;24794;51.982;5.878;2022-12-24T05:41:34;10.40;99.90
39033;DHT22;24794;51.982;5.878;2022-12-24T05:42:35;10.40;99.90
39033;DHT22;24794;51.982;5.878;2022-12-24T05:43:36;10.40;99.90
39033;DHT22;24794;51.982;5.878;2022-12-24T05:44:37;10.40;99.90
39033;DHT22;24794;51.982;5.878;2022-12-24T05:45:37;10.40;99.90
39033;DHT22;24794;51.982;5.878;2022-12-24T05:46:38;10.40;99.90
39033;DHT22;24794;51.982;5.878;2022-12-24T05:47:39;10.40;99.90
39033;DHT22;24794;51.982;5.878;2022-12-24T05:48:39;10.40;99.90
39033;DHT22;24794;51.982;5.878;2022-12-24T05:49:40;10.40;99.90
39033;DHT22;24794;51.982;5.878;2022-12-24T05:50:41;10.40;99.90
39033;DHT22;24794;51.982;5.878;2022-12-24T05:51:41;10.40;99.90
39033;DHT22;24794;51.982;5.878;2022-12-24T05:52:42;10.40;99.90
39033;DHT22;24794;51.982;5.878;2022-12-24T05:53:43;10.40;99.90
39033;DHT22;24794;51.982;5.878;2022-12-24T05:54:43;10.40;99.90
39033;DHT22;24794;51.982;5.878;2022-12-24T05:55:44;10.40;99.90
39033;DHT22;24794;51.982;5.878;2022-12-24T05:56:44;10.40;99.90
39033;DHT22;24794;51.982;5.878;2022-12-24T05:57:45;10.40;99.90
39033;DHT22;24794;51.982;5.878;2022-12-24T05:58:45;10.40;99.90
39033;DHT22;24794;51.982;5.878;2022-12-24T05:59:46;10.40;99.90
39033;DHT22;24794;51.982;5.878;2022-12-24T06:00:48;10.40;99.90
39033;DHT22;24794;51.982;5.878;2022-12-24T06:01:49;10.50;99.90
39033;DHT22;24794;51.982;5.878;2022-12-24T06:02:49;10.50;99.90
39033;DHT22;24794;51.982;5.878;2022-12-24T06:03:51;10.50;99.90
39033;DHT22;24794;51.982;5.878;2022-12-24T06:04:51;10.50;99.90
39033;DHT22;24794;51.982;5.878;2022-12-24T06:06:05;10.50;99.90
39033;DHT22;24794;51.982;5.878;2022-12-24T06:07:06;10.50;99.90
39033;DHT22;24794;51.982;5.878;2022-12-24T06:08:06;10.50;99.90
39033;DHT22;24794;51.982;5.878;2022-12-24T06:09:07;10.50;99.90
39033;DHT22;24794;51.982;5.878;2022-12-24T06:10:08;10.50;99.90
39033;DHT22;24794;51.982;5.878;2022-12-24T06:11:11;10.50;99.90
39033;DHT22;24794;51.982;5.878;2022-12-24T06:12:12;10.50;99.90
39033;DHT22;24794;51.982;5.878;2022-12-24T06:13:12;10.50;99.90
39033;DHT22;24794;51.982;5.878;2022-12-24T06:14:13;10.50;99.90
39033;DHT22;24794;51.982;5.878;2022-12-24T06:15:14;10.50;99.90
39033;DHT22;24794;51.982;5.878;2022-12-24T06:16:16;10.50;99.90
39033;DHT22;24794;51.982;5.878;2022-12-24T06:17:17;10.50;99.90
39033;DHT22;24794;51.982;5.878;2022-12-24T06:18:18;10.50;99.90
39033;DHT22;24794;51.982;5.878;2022-12-24T06:19:18;10.50;99.90
39033;DHT22;24794;51.982;5.878;2022-12-24T06:20:19;10.60;99.90
39033;DHT22;24794;51.982;5.878;2022-12-24T06:21:20;10.60;99.90
39033;DHT22;24794;51.982;5.878;2022-12-24T06:22:20;10.50;99.90
39033;DHT22;24794;51.982;5.878;2022-12-24T06:23:22;10.60;99.90
39033;DHT22;24794;51.982;5.878;2022-12-24T06:24:23;10.60;99.90
39033;DHT22;24794;51.982;5.878;2022-12-24T06:25:23;10.60;99.90
39033;DHT22;24794;51.982;5.878;2022-12-24T06:26:24;10.60;99.90
39033;DHT22;24794;51.982;5.878;2022-12-24T06:27:25;10.60;99.90
39033;DHT22;24794;51.982;5.878;2022-12-24T06:28:34;10.60;99.90
39033;DHT22;24794;51.982;5.878;2022-12-24T06:29:35;10.60;99.90
39033;DHT22;24794;51.982;5.878;2022-12-24T06:30:35;10.60;99.90
39033;DHT22;24794;51.982;5.878;2022-12-24T06:31:36;10.60;99.90
39033;DHT22;24794;51.982;5.878;2022-12-24T06:32:37;10.60;99.90
39033;DHT22;24794;51.982;5.878;2022-12-24T06:33:37;10.60;99.90
39033;DHT22;24794;51.982;5.878;2022-12-24T06:34:38;10.60;99.90
39033;DHT22;24794;51.982;5.878;2022-12-24T06:35:38;10.60;99.90
39033;DHT22;24794;51.982;5.878;2022-12-24T06:36:39;10.60;99.90
39033;DHT22;24794;51.982;5.878;2022-12-24T06:37:40;10.60;99.90
39033;DHT22;24794;51.982;5.878;2022-12-24T06:38:40;10.60;99.90
39033;DHT22;24794;51.982;5.878;2022-12-24T06:39:41;10.60;99.90
39033;DHT22;24794;51.982;5.878;2022-12-24T06:40:43;10.60;99.90
39033;DHT22;24794;51.982;5.878;2022-12-24T06:41:43;10.60;99.90
39033;DHT22;24794;51.982;5.878;2022-12-24T06:42:44;10.60;99.90
39033;DHT22;24794;51.982;5.878;2022-12-24T06:43:46;10.60;99.90
39033;DHT22;24794;51.982;5.878;2022-12-24T06:44:47;10.70;99.90
39033;DHT22;24794;51.982;5.878;2022-12-24T06:45:47;10.60;99.90
39033;DHT22;24794;51.982;5.878;2022-12-24T06:46:48;10.70;99.90
39033;DHT22;24794;51.982;5.878;2022-12-24T06:47:49;10.60;99.90
39033;DHT22;24794;51.982;5.878;2022-12-24T06:48:49;10.70;99.90
39033;DHT22;24794;51.982;5.878;2022-12-24T06:49:50;10.60;99.90
39033;DHT22;24794;51.982;5.878;2022-12-24T06:50:51;10.70;99.90
39033;DHT22;24794;51.982;5.878;2022-12-24T06:51:51;10.70;99.90
39033;DHT22;24794;51.982;5.878;2022-12-24T06:52:52;10.70;99.90
39033;DHT22;24794;51.982;5.878;2022-12-24T06:53:52;10.70;99.90
39033;DHT22;24794;51.982;5.878;2022-12-24T06:54:54;10.70;99.90
39033;DHT22;24794;51.982;5.878;2022-12-24T06:56:05;10.70;99.90
39033;DHT22;24794;51.982;5.878;2022-12-24T06:57:06;10.70;99.90
39033;DHT22;24794;51.982;5.878;2022-12-24T06:58:06;10.70;99.90
39033;DHT22;24794;51.982;5.878;2022-12-24T06:59:07;10.70;99.90
39033;DHT22;24794;51.982;5.878;2022-12-24T07:00:09;10.70;99.90